logo
Search for airport 
image banner adimage banner adimage banner ad
image banner ad

SDZ6 - Aldeia Kumarumã

Located in Oiapoque, Brazil

ICAO - SDZ6, IATA -

Data provided by Airmate  

General information

Coordinates: N3°23'9" W51°17'58"
Elevation is 39 feet MSL.
 
View others Airports in Amapá

Operational data

Special qualification required
Current time UTC:
Current local time:
Weather at : SBOI - Oiapoque ( 76 km )
METAR: SBOI 191500Z AUTO 04005KT 010V070 9000 SCT016 BKN022 BKN026 29/26 Q1013
TAF: TAF SBOI 190916Z 1912/1924 33005KT 7000 SCT009 BKN016 TX29/1918Z TN26/1924Z BECMG 1912/1914 03005KT TEMPO 1914/1920 06007KT BKN007 BKN023 RMK PHC
View NOTAMs / SUP AIP / TFR affecting this airport [VIEW]
Communications frequencies: [VIEW]

Runways:

RWY identifierQFULength (ft)Width (ft)SurfaceLDA (ft)
17196959EARTH
35196959EARTH

Airport contact information

Address: Oiapoque Brazil

Satellite view of SDZ6